Time;durP1;ratioP1;P1;durP2;ratioP2;P2;SDS_P1;SDS_P2;PMS_P1;PMS_P2;Temp;Humidity;BMP_temperature;BMP_pressure;BME280_temperature;BME280_humidity;BME280_pressure;Samples;Min_cycle;Max_cycle;Signal;HPM_P1;HPM_P2
2021/07/18 00:02:09;;;;;;;7.65;2.67;;;20.30;99.90;;;;;;5074579;28;20029;-85
2021/07/18 00:04:35;;;;;;;9.30;3.10;;;20.30;99.90;;;;;;5073244;28;20025;-87
2021/07/18 00:07:00;;;;;;;5.65;2.92;;;20.30;99.90;;;;;;5073644;28;20028;-86
2021/07/18 00:09:26;;;;;;;5.40;2.83;;;20.20;99.90;;;;;;5072003;28;20040;-87
2021/07/18 00:11:52;;;;;;;7.60;3.25;;;20.20;99.90;;;;;;5073038;28;20031;-84
2021/07/18 00:14:18;;;;;;;7.50;3.42;;;20.20;99.90;;;;;;5073957;28;20043;-86
2021/07/18 00:16:43;;;;;;;6.90;3.03;;;20.20;99.90;;;;;;5072253;28;20033;-85
2021/07/18 00:19:09;;;;;;;6.90;3.28;;;20.10;99.90;;;;;;5072374;28;20066;-86
2021/07/18 00:21:36;;;;;;;5.00;2.70;;;20.10;99.90;;;;;;5072760;28;20036;-88
2021/07/18 00:24:02;;;;;;;5.95;2.75;;;20.10;99.90;;;;;;5072073;28;20081;-85
2021/07/18 00:26:28;;;;;;;7.57;3.10;;;20.10;99.90;;;;;;5074587;28;20089;-85
2021/07/18 00:28:54;;;;;;;5.55;3.40;;;20.00;99.90;;;;;;5072912;28;20029;-88
2021/07/18 00:31:19;;;;;;;6.45;3.70;;;20.00;99.90;;;;;;5073306;28;20091;-86
2021/07/18 00:33:45;;;;;;;4.53;3.03;;;20.00;99.90;;;;;;5072718;28;20052;-86
2021/07/18 00:36:10;;;;;;;6.07;3.10;;;19.90;99.90;;;;;;5072429;28;20131;-84
2021/07/18 00:38:36;;;;;;;6.90;3.83;;;20.00;99.90;;;;;;5071272;28;20199;-87
2021/07/18 00:41:02;;;;;;;7.10;3.92;;;20.00;99.90;;;;;;5070930;28;20028;-84
2021/07/18 00:43:28;;;;;;;5.63;3.42;;;19.90;99.90;;;;;;5070657;28;20031;-85
2021/07/18 00:45:58;;;;;;;5.43;3.30;;;20.00;99.90;;;;;;5072024;28;20060;-84
2021/07/18 00:48:27;;;;;;;5.45;2.90;;;20.00;99.90;;;;;;5068136;28;20051;-84
2021/07/18 00:50:54;;;;;;;5.82;3.03;;;19.90;99.90;;;;;;5052409;28;20422;-84
2021/07/18 00:53:20;;;;;;;7.38;3.20;;;19.90;99.90;;;;;;5053411;28;20028;-84
2021/07/18 00:55:46;;;;;;;6.40;3.53;;;19.90;99.90;;;;;;5052424;28;20031;-84
2021/07/18 00:58:13;;;;;;;6.07;3.10;;;19.90;99.90;;;;;;5053633;28;20044;-84
2021/07/18 01:00:39;;;;;;;5.07;3.20;;;19.90;99.90;;;;;;5051685;28;20468;-83
2021/07/18 01:03:05;;;;;;;6.80;3.17;;;19.90;99.90;;;;;;5053802;28;20036;-83
2021/07/18 01:05:31;;;;;;;7.65;3.33;;;19.90;99.90;;;;;;5053841;28;20504;-84
2021/07/18 01:07:58;;;;;;;5.75;3.40;;;19.90;99.90;;;;;;5052410;28;20028;-84
2021/07/18 01:10:24;;;;;;;5.68;3.10;;;19.80;99.90;;;;;;5051475;28;20111;-84
2021/07/18 01:12:50;;;;;;;6.80;3.78;;;19.80;99.90;;;;;;5053840;28;20060;-84
2021/07/18 01:15:16;;;;;;;6.57;3.55;;;19.80;99.90;;;;;;5053942;28;20055;-83
2021/07/18 01:17:41;;;;;;;5.97;3.13;;;19.80;99.90;;;;;;5053682;28;20029;-84
2021/07/18 01:20:09;;;;;;;6.55;2.97;;;19.80;99.90;;;;;;5051610;28;20025;-84
2021/07/18 01:22:35;;;;;;;6.65;3.40;;;19.80;99.90;;;;;;5053844;28;20052;-84
2021/07/18 01:25:04;;;;;;;5.95;3.25;;;19.80;99.90;;;;;;5053404;28;20033;-84
2021/07/18 01:27:30;;;;;;;6.95;3.25;;;19.70;99.90;;;;;;5053424;28;20397;-85
2021/07/18 01:29:56;;;;;;;8.50;3.90;;;19.60;99.90;;;;;;5051551;28;20033;-84
2021/07/18 01:32:22;;;;;;;8.35;3.38;;;19.60;99.90;;;;;;5053285;28;20100;-85
2021/07/18 01:34:49;;;;;;;9.48;3.65;;;19.60;99.90;;;;;;5052047;28;20112;-83
2021/07/18 01:37:15;;;;;;;6.78;3.13;;;19.60;99.90;;;;;;5051513;28;20031;-84
2021/07/18 01:39:41;;;;;;;7.75;3.60;;;19.60;99.90;;;;;;5052278;28;20405;-83
2021/07/18 01:42:06;;;;;;;6.40;3.50;;;19.60;99.90;;;;;;5051668;28;20021;-84
2021/07/18 01:44:32;;;;;;;6.75;3.22;;;19.60;99.90;;;;;;5052972;28;20056;-83
2021/07/18 01:46:58;;;;;;;7.15;3.30;;;19.60;99.90;;;;;;5053073;28;20481;-83
2021/07/18 01:49:24;;;;;;;6.65;3.97;;;19.60;99.90;;;;;;5052275;28;20029;-84
2021/07/18 01:51:49;;;;;;;5.20;3.13;;;19.60;99.90;;;;;;5051517;28;20031;-83
2021/07/18 01:54:16;;;;;;;7.20;3.38;;;19.50;99.90;;;;;;5051453;28;20124;-84
2021/07/18 01:56:42;;;;;;;5.10;3.30;;;19.50;99.90;;;;;;5051448;28;20029;-83
2021/07/18 01:59:09;;;;;;;5.30;3.58;;;19.50;99.90;;;;;;5052226;28;20485;-84
2021/07/18 02:01:35;;;;;;;7.63;3.72;;;19.50;99.90;;;;;;5052981;28;20115;-83
2021/07/18 02:04:02;;;;;;;7.20;3.50;;;19.50;99.90;;;;;;5053028;28;20021;-83
2021/07/18 02:06:30;;;;;;;7.93;3.95;;;19.40;99.90;;;;;;5052307;28;20025;-84
2021/07/18 02:08:58;;;;;;;9.77;3.83;;;19.40;99.90;;;;;;5051258;28;20029;-84
2021/07/18 02:11:24;;;;;;;6.95;3.63;;;19.40;99.90;;;;;;5052670;28;20029;-83
2021/07/18 02:13:53;;;;;;;5.38;3.22;;;19.40;99.90;;;;;;5050931;28;20064;-84
2021/07/18 02:16:19;;;;;;;7.75;3.47;;;19.40;99.90;;;;;;5052496;28;20024;-84
2021/07/18 02:18:48;;;;;;;5.82;3.80;;;19.30;99.90;;;;;;5052479;28;20558;-83
2021/07/18 02:21:15;;;;;;;7.18;3.35;;;19.30;99.90;;;;;;5050860;28;20021;-85
2021/07/18 02:23:40;;;;;;;7.05;3.55;;;19.30;99.90;;;;;;5051220;28;20028;-84
2021/07/18 02:26:06;;;;;;;6.97;4.03;;;19.30;99.90;;;;;;5052373;28;20474;-84
2021/07/18 02:28:32;;;;;;;5.35;3.47;;;19.20;99.90;;;;;;5052242;28;20025;-85
2021/07/18 02:30:58;;;;;;;7.53;4.10;;;19.20;99.90;;;;;;5050300;28;20025;-83
2021/07/18 02:33:24;;;;;;;7.43;3.72;;;19.20;99.90;;;;;;5050802;28;20032;-84
2021/07/18 02:35:50;;;;;;;9.40;3.72;;;19.20;99.90;;;;;;5051796;28;20111;-84
2021/07/18 02:38:16;;;;;;;5.88;3.92;;;19.20;99.90;;;;;;5050331;28;20104;-84
2021/07/18 02:40:42;;;;;;;7.47;3.88;;;19.20;99.90;;;;;;5049926;28;20025;-84
2021/07/18 02:43:08;;;;;;;6.63;3.55;;;19.20;99.90;;;;;;5051868;28;20021;-83
2021/07/18 02:45:33;;;;;;;5.60;3.60;;;19.20;99.90;;;;;;5051924;28;20101;-83
2021/07/18 02:47:59;;;;;;;7.43;3.88;;;19.10;99.90;;;;;;5050576;28;20025;-83
2021/07/18 02:50:28;;;;;;;6.43;3.92;;;19.10;99.90;;;;;;5050394;28;20120;-83
2021/07/18 02:52:54;;;;;;;8.00;4.43;;;19.10;99.90;;;;;;5052001;28;20025;-84
2021/07/18 02:55:21;;;;;;;6.93;4.18;;;19.00;99.90;;;;;;5050852;28;20024;-84
2021/07/18 02:57:47;;;;;;;9.85;4.68;;;19.00;99.90;;;;;;5051287;28;20480;-84
2021/07/18 03:00:16;;;;;;;7.40;4.68;;;19.00;99.90;;;;;;5049273;28;20098;-83
2021/07/18 03:02:43;;;;;;;6.43;3.85;;;18.90;99.90;;;;;;5052418;28;20055;-84
2021/07/18 03:05:13;;;;;;;9.10;4.40;;;18.90;99.90;;;;;;5050727;28;20025;-84
2021/07/18 03:07:40;;;;;;;7.32;4.30;;;18.70;99.90;;;;;;5050282;28;20029;-84
2021/07/18 03:10:07;;;;;;;8.20;4.45;;;18.70;99.90;;;;;;5051423;28;20044;-84
2021/07/18 03:12:33;;;;;;;5.82;3.53;;;18.70;99.90;;;;;;5051849;28;20377;-84
2021/07/18 03:15:09;;;;;;;9.15;4.60;;;18.70;99.90;;;;;;5051651;28;20017;-85
2021/07/18 03:17:34;;;;;;;11.85;4.45;;;18.60;99.90;;;;;;5050192;28;20068;-83
2021/07/18 03:20:02;;;;;;;6.97;4.47;;;18.60;99.90;;;;;;5051403;28;20466;-84
2021/07/18 03:22:29;;;;;;;7.82;3.80;;;18.50;99.90;;;;;;5051693;28;20107;-83
2021/07/18 03:24:54;;;;;;;7.47;4.22;;;18.50;99.90;;;;;;5051847;28;20025;-83
2021/07/18 03:27:20;;;;;;;7.82;4.10;;;18.50;99.90;;;;;;5051616;28;20163;-83
2021/07/18 03:29:46;;;;;;;8.75;4.25;;;18.50;99.90;;;;;;5050525;28;20111;-84
2021/07/18 03:32:11;;;;;;;8.77;4.35;;;18.50;99.90;;;;;;5051189;28;20024;-84
2021/07/18 03:34:37;;;;;;;7.22;3.92;;;18.50;99.90;;;;;;5052872;28;20485;-83
2021/07/18 03:37:03;;;;;;;6.05;4.32;;;18.50;99.90;;;;;;5053338;28;20037;-84
2021/07/18 03:39:28;;;;;;;8.80;4.65;;;18.50;99.90;;;;;;5054125;28;20025;-84
2021/07/18 03:41:54;;;;;;;8.20;4.65;;;18.40;99.90;;;;;;5055145;28;20056;-84
2021/07/18 03:44:20;;;;;;;8.18;4.32;;;18.40;99.90;;;;;;5053658;28;20021;-83
2021/07/18 03:46:45;;;;;;;6.20;4.20;;;18.50;99.90;;;;;;5053340;28;20025;-83
2021/07/18 03:49:11;;;;;;;7.30;4.10;;;18.50;99.90;;;;;;5054750;28;20393;-84
2021/07/18 03:51:40;;;;;;;8.13;4.60;;;18.50;99.90;;;;;;5052769;28;20079;-84
2021/07/18 03:54:05;;;;;;;8.02;4.28;;;18.50;99.90;;;;;;5053352;28;20052;-84
2021/07/18 03:56:31;;;;;;;8.63;4.93;;;18.60;99.90;;;;;;5053423;28;20064;-84
2021/07/18 03:58:56;;;;;;;6.95;4.85;;;18.60;99.90;;;;;;5052230;28;20424;-83
2021/07/18 04:01:22;;;;;;;9.32;4.95;;;18.60;99.90;;;;;;5052738;28;20090;-84
2021/07/18 04:03:48;;;;;;;9.50;4.72;;;18.70;99.90;;;;;;5053514;28;20338;-84
2021/07/18 04:06:17;;;;;;;9.88;5.15;;;18.70;99.90;;;;;;5052950;28;20032;-83
2021/07/18 04:08:44;;;;;;;9.90;5.10;;;18.60;99.90;;;;;;5054427;28;20025;-84
2021/07/18 04:11:11;;;;;;;8.75;4.93;;;18.60;99.90;;;;;;5054423;28;20090;-83
2021/07/18 04:13:38;;;;;;;9.63;4.97;;;18.70;99.90;;;;;;5054576;28;20466;-83
2021/07/18 04:16:05;;;;;;;8.65;4.70;;;18.70;99.90;;;;;;5054497;28;20541;-83
2021/07/18 04:18:31;;;;;;;7.32;4.43;;;18.70;99.90;;;;;;5053154;28;20021;-83
2021/07/18 04:20:57;;;;;;;8.60;5.05;;;18.70;99.90;;;;;;5052976;28;20021;-85
2021/07/18 04:23:23;;;;;;;8.30;5.15;;;18.70;99.90;;;;;;5055238;28;20366;-85
2021/07/18 04:25:48;;;;;;;8.18;5.20;;;18.70;99.90;;;;;;5050327;28;20102;-83
2021/07/18 04:28:14;;;;;;;8.80;5.13;;;18.70;99.90;;;;;;5054318;28;20055;-83
2021/07/18 04:30:40;;;;;;;9.20;5.10;;;18.70;99.90;;;;;;5053846;28;20097;-83
2021/07/18 04:33:06;;;;;;;10.20;5.90;;;18.70;99.90;;;;;;5054245;28;20092;-83
2021/07/18 04:35:33;;;;;;;8.70;5.75;;;18.70;99.90;;;;;;5054240;28;20045;-83
2021/07/18 04:37:58;;;;;;;8.65;5.32;;;18.70;99.90;;;;;;5052307;28;20469;-83
2021/07/18 04:40:27;;;;;;;11.85;5.68;;;18.70;99.90;;;;;;5053913;28;20165;-83
2021/07/18 04:42:53;;;;;;;10.23;5.65;;;18.80;99.90;;;;;;5053912;28;20583;-84
2021/07/18 04:45:19;;;;;;;11.57;5.70;;;18.80;99.90;;;;;;5051976;28;20053;-83
2021/07/18 04:47:50;;;;;;;8.63;5.28;;;18.80;99.90;;;;;;5053505;28;20047;-83
2021/07/18 04:50:16;;;;;;;11.32;5.90;;;18.80;99.90;;;;;;5052227;28;20033;-83
2021/07/18 04:52:43;;;;;;;11.40;6.00;;;18.80;99.90;;;;;;5052142;28;20057;-83
2021/07/18 04:55:11;;;;;;;10.18;5.75;;;18.80;99.90;;;;;;5053545;28;20067;-83
2021/07/18 04:57:37;;;;;;;12.38;6.13;;;18.80;99.90;;;;;;5052498;28;20017;-83
2021/07/18 05:00:12;;;;;;;12.43;6.05;;;18.80;99.90;;;;;;5051286;28;20033;-84
2021/07/18 05:02:39;;;;;;;10.90;5.75;;;18.80;99.90;;;;;;5050271;28;20021;-84
2021/07/18 05:05:05;;;;;;;8.55;5.82;;;18.80;99.90;;;;;;5051421;28;20219;-83
2021/07/18 05:07:31;;;;;;;9.77;5.53;;;18.90;99.90;;;;;;5051150;28;20104;-83
2021/07/18 05:09:57;;;;;;;9.15;5.78;;;18.90;99.90;;;;;;5050587;28;20104;-83
2021/07/18 05:12:23;;;;;;;11.10;5.50;;;18.90;99.90;;;;;;5067097;28;20025;-83
2021/07/18 05:14:49;;;;;;;12.65;5.95;;;18.90;99.90;;;;;;5052882;28;20036;-83
2021/07/18 05:17:14;;;;;;;12.38;6.38;;;19.00;99.90;;;;;;5052613;28;20469;-84
2021/07/18 05:19:41;;;;;;;9.93;6.10;;;18.90;99.90;;;;;;5052073;28;20097;-83
2021/07/18 05:22:07;;;;;;;8.20;5.60;;;18.90;99.90;;;;;;5050913;28;20482;-83
2021/07/18 05:24:33;;;;;;;9.23;5.90;;;18.90;99.90;;;;;;5052088;28;20017;-83
2021/07/18 05:26:59;;;;;;;11.18;5.80;;;18.90;99.90;;;;;;5052456;28;20101;-83
2021/07/18 05:29:25;;;;;;;7.78;5.45;;;19.00;99.90;;;;;;5050459;28;20029;-83
2021/07/18 05:31:51;;;;;;;9.07;5.20;;;19.00;99.90;;;;;;5067968;28;20532;-83
2021/07/18 05:34:17;;;;;;;11.77;6.20;;;19.00;99.90;;;;;;5050953;28;20115;-84
2021/07/18 05:36:42;;;;;;;10.95;5.95;;;19.10;99.90;;;;;;5052254;28;20110;-83
2021/07/18 05:39:08;;;;;;;8.95;5.68;;;19.10;99.90;;;;;;5050150;28;20485;-83
2021/07/18 05:41:34;;;;;;;9.68;5.32;;;19.10;99.90;;;;;;5052367;28;20060;-83
2021/07/18 05:43:59;;;;;;;8.52;5.00;;;19.20;99.90;;;;;;5052167;28;20044;-83
2021/07/18 05:46:25;;;;;;;8.60;5.05;;;19.20;99.90;;;;;;5052181;28;20033;-83
2021/07/18 05:48:50;;;;;;;7.72;5.05;;;19.30;99.90;;;;;;5051580;28;20393;-84
2021/07/18 05:51:16;;;;;;;8.48;6.00;;;19.20;99.90;;;;;;5067884;28;20430;-83
2021/07/18 05:53:42;;;;;;;6.18;4.95;;;19.30;99.90;;;;;;5051548;28;20055;-83
2021/07/18 05:56:07;;;;;;;7.70;4.88;;;19.30;99.90;;;;;;5052175;28;20079;-83
2021/07/18 05:58:33;;;;;;;8.02;5.40;;;19.30;99.90;;;;;;5073946;22;20017;-88
2021/07/18 06:00:59;;;;;;;7.57;4.75;;;19.30;99.90;;;;;;5033469;28;20028;-88
2021/07/18 06:03:24;;;;;;;10.32;5.35;;;19.30;99.90;;;;;;5034042;28;20357;-88
2021/07/18 06:05:50;;;;;;;9.27;4.68;;;19.30;99.90;;;;;;5033902;28;20021;-87
2021/07/18 06:08:15;;;;;;;6.90;4.00;;;19.40;99.90;;;;;;5033737;28;20021;-87
2021/07/18 06:10:41;;;;;;;7.50;3.85;;;19.40;99.90;;;;;;5049863;28;20379;-87
2021/07/18 06:13:07;;;;;;;9.68;4.40;;;19.50;99.90;;;;;;5050109;28;20017;-87
2021/07/18 06:15:32;;;;;;;6.35;3.92;;;19.50;99.90;;;;;;5050150;28;20116;-87
2021/07/18 06:17:58;;;;;;;8.00;3.90;;;19.50;99.90;;;;;;5050062;28;20107;-87
2021/07/18 06:20:24;;;;;;;5.97;3.53;;;19.50;99.90;;;;;;5049479;28;20468;-87
2021/07/18 06:22:51;;;;;;;7.38;3.42;;;19.60;99.90;;;;;;5048032;28;20488;-88
2021/07/18 06:25:17;;;;;;;6.47;3.75;;;19.60;99.90;;;;;;5048134;28;20021;-87
2021/07/18 06:27:43;;;;;;;5.35;3.03;;;19.60;99.90;;;;;;5049434;28;20025;-87
2021/07/18 06:30:14;;;;;;;4.82;3.13;;;19.60;99.90;;;;;;5047362;28;20051;-88
2021/07/18 06:32:40;;;;;;;5.65;2.92;;;19.70;99.90;;;;;;5048263;28;20572;-87
2021/07/18 06:35:07;;;;;;;5.35;2.90;;;19.70;99.90;;;;;;5049228;28;20079;-88
2021/07/18 06:37:33;;;;;;;4.88;3.13;;;19.70;99.90;;;;;;5049231;28;20025;-88
2021/07/18 06:40:00;;;;;;;5.25;2.83;;;19.80;99.90;;;;;;5049042;28;20031;-87
2021/07/18 06:42:25;;;;;;;4.50;2.80;;;19.80;99.90;;;;;;5049945;28;20104;-87
2021/07/18 06:44:51;;;;;;;6.53;2.63;;;19.90;99.90;;;;;;5049748;28;20083;-87
2021/07/18 06:47:16;;;;;;;4.63;2.55;;;19.90;99.90;;;;;;5049758;28;20488;-87
2021/07/18 06:49:42;;;;;;;3.83;2.25;;;19.90;99.30;;;;;;5049002;28;20043;-88
2021/07/18 06:52:08;;;;;;;5.22;2.25;;;19.90;99.20;;;;;;5049418;28;20233;-88
2021/07/18 06:54:33;;;;;;;3.97;2.53;;;19.90;98.80;;;;;;5049312;28;20048;-88
2021/07/18 06:56:59;;;;;;;4.45;2.35;;;19.90;99.20;;;;;;5049236;28;20036;-88
2021/07/18 06:59:24;;;;;;;5.35;2.47;;;20.00;99.40;;;;;;5048017;28;20393;-87
2021/07/18 07:01:50;;;;;;;5.35;2.20;;;20.00;99.10;;;;;;5050439;28;20092;-86
2021/07/18 07:04:16;;;;;;;3.40;2.05;;;20.00;99.10;;;;;;5047119;28;20339;-87
2021/07/18 07:06:41;;;;;;;4.15;2.38;;;20.00;99.10;;;;;;5030844;28;20073;-87
2021/07/18 07:09:07;;;;;;;3.70;2.40;;;20.10;98.90;;;;;;5029350;28;20066;-87
2021/07/18 07:11:32;;;;;;;4.63;2.50;;;20.10;98.90;;;;;;5029437;28;20025;-88
2021/07/18 07:13:58;;;;;;;3.25;2.13;;;20.10;99.00;;;;;;5030604;28;20033;-88
2021/07/18 07:16:24;;;;;;;5.57;2.63;;;20.20;99.00;;;;;;5030556;28;20470;-88
2021/07/18 07:18:49;;;;;;;5.25;2.65;;;20.20;98.90;;;;;;5040067;28;20028;-86
2021/07/18 07:21:15;;;;;;;5.38;3.45;;;20.20;98.70;;;;;;5049497;28;20021;-88
2021/07/18 07:23:41;;;;;;;5.57;3.20;;;20.30;98.70;;;;;;5049023;28;20478;-89
2021/07/18 07:26:07;;;;;;;6.32;3.40;;;20.30;99.20;;;;;;5050575;28;20108;-88
2021/07/18 07:28:33;;;;;;;6.30;2.72;;;20.40;98.60;;;;;;5050617;28;20024;-88
2021/07/18 07:31:01;;;;;;;6.43;2.88;;;20.40;98.50;;;;;;5048563;28;20036;-89
2021/07/18 07:33:29;;;;;;;3.45;2.30;;;20.40;98.20;;;;;;5049024;28;20021;-87
2021/07/18 07:35:54;;;;;;;5.97;2.42;;;20.40;98.30;;;;;;5048855;28;20041;-88
2021/07/18 07:38:20;;;;;;;5.13;2.20;;;20.40;98.20;;;;;;5048917;28;20526;-88
2021/07/18 07:40:46;;;;;;;3.40;2.20;;;20.40;98.10;;;;;;5048642;28;20390;-88
2021/07/18 07:43:12;;;;;;;4.07;2.03;;;20.40;98.10;;;;;;5048990;28;20029;-88
2021/07/18 07:45:38;;;;;;;5.30;2.00;;;20.40;98.20;;;;;;5050578;28;20025;-88
2021/07/18 07:48:04;;;;;;;4.15;2.08;;;20.50;98.30;;;;;;5048939;28;20443;-87
2021/07/18 07:50:30;;;;;;;4.03;2.17;;;20.50;98.20;;;;;;5048391;28;20032;-89
2021/07/18 07:52:56;;;;;;;4.80;2.45;;;20.50;98.20;;;;;;5050017;28;20096;-88
2021/07/18 07:55:22;;;;;;;4.40;2.40;;;20.50;98.10;;;;;;5050441;28;20400;-89
2021/07/18 07:57:48;;;;;;;3.35;2.03;;;20.60;98.00;;;;;;5039574;28;20125;-88
2021/07/18 08:00:16;;;;;;;5.00;2.35;;;20.60;97.80;;;;;;5031178;28;20041;-89
2021/07/18 08:02:45;;;;;;;3.15;1.90;;;20.60;97.80;;;;;;5030864;28;20032;-88
2021/07/18 08:05:11;;;;;;;4.43;2.10;;;20.60;97.50;;;;;;5030743;28;20116;-86
2021/07/18 08:07:37;;;;;;;4.00;2.10;;;20.70;97.20;;;;;;5028359;28;20140;-87
2021/07/18 08:10:09;;;;;;;4.03;2.15;;;20.70;97.30;;;;;;5028430;28;20053;-88
2021/07/18 08:12:45;;;;;;;3.10;1.85;;;20.80;97.50;;;;;;5029564;28;20036;-90
2021/07/18 08:15:28;;;;;;;3.38;2.13;;;20.80;97.50;;;;;;5037498;28;20477;-91
2021/07/18 08:17:54;;;;;;;4.68;2.17;;;20.80;97.60;;;;;;4974316;28;20049;-91
2021/07/18 08:20:36;;;;;;;4.15;2.00;;;20.80;97.00;;;;;;5029294;28;20075;-89
2021/07/18 08:23:12;;;;;;;2.88;1.70;;;20.80;96.40;;;;;;5032986;28;20121;-90
2021/07/18 08:26:20;;;;;;;3.22;1.88;;;20.90;95.90;;;;;;5033186;28;20029;-89
2021/07/18 08:28:58;;;;;;;4.45;1.60;;;20.90;96.10;;;;;;5032828;28;20035;-89
2021/07/18 08:31:58;;;;;;;6.90;2.38;;;21.00;95.70;;;;;;5033132;28;20044;-90
2021/07/18 08:34:39;;;;;;;3.47;1.73;;;21.00;95.40;;;;;;5033029;28;20112;-90
2021/07/18 08:40:29;;;;;;;2.10;1.60;;;21.10;95.40;;;;;;5032984;28;20098;-90
2021/07/18 08:42:55;;;;;;;3.10;1.70;;;21.10;95.40;;;;;;5032983;28;20033;-89
2021/07/18 09:16:08;;;;;;;7.47;3.13;;;21.50;95.30;;;;;;5033636;28;20099;-88
2021/07/18 09:18:34;;;;;;;7.00;3.05;;;21.60;95.50;;;;;;5031631;28;20029;-88
2021/07/18 09:21:14;;;;;;;7.32;3.53;;;21.70;95.80;;;;;;5031988;28;20427;-90
2021/07/18 09:23:40;;;;;;;8.27;3.47;;;21.70;95.90;;;;;;5032070;28;20490;-88
2021/07/18 09:26:25;;;;;;;7.60;3.45;;;21.70;95.90;;;;;;5031597;28;20067;-88
2021/07/18 09:28:51;;;;;;;12.90;4.15;;;21.70;96.40;;;;;;5032339;28;20485;-87
2021/07/18 09:31:34;;;;;;;9.25;3.67;;;21.80;96.60;;;;;;5033384;28;20036;-87
2021/07/18 09:34:13;;;;;;;7.88;3.55;;;21.80;96.50;;;;;;5033490;28;20025;-88
2021/07/18 09:36:39;;;;;;;6.60;3.00;;;21.90;96.70;;;;;;5032839;28;20034;-89
2021/07/18 09:39:09;;;;;;;9.40;3.47;;;22.00;95.70;;;;;;5032072;28;20029;-87
2021/07/18 09:41:39;;;;;;;7.03;2.97;;;22.00;95.70;;;;;;5032775;28;20032;-89
2021/07/18 09:44:05;;;;;;;9.05;3.70;;;22.00;95.40;;;;;;5034177;28;20369;-90
2021/07/18 09:46:32;;;;;;;8.82;3.65;;;22.10;95.20;;;;;;5033869;28;20030;-88
2021/07/18 09:49:00;;;;;;;7.88;3.25;;;22.10;95.00;;;;;;5031938;28;20028;-88
2021/07/18 09:51:26;;;;;;;9.32;2.83;;;22.20;95.10;;;;;;5031271;28;20079;-88
2021/07/18 09:54:13;;;;;;;7.60;2.13;;;22.20;94.30;;;;;;5032028;28;20073;-89
2021/07/18 09:57:13;;;;;;;5.82;2.08;;;22.30;93.70;;;;;;5035367;28;20084;-90
2021/07/18 10:03:22;;;;;;;7.63;2.50;;;22.50;94.50;;;;;;5066902;28;20071;-90
2021/07/18 10:06:26;;;;;;;6.72;2.75;;;22.60;94.10;;;;;;5052522;28;20021;-90
2021/07/18 10:10:03;;;;;;;;;;;;;;;;;;;;;
2021/07/18 10:19:43;;;;;;;7.43;3.55;;;22.70;94.30;;;;;;4958398;29;20515;-86
2021/07/18 10:22:10;;;;;;;7.53;2.60;;;22.70;94.20;;;;;;4953627;29;20553;-87
2021/07/18 10:24:37;;;;;;;5.97;2.78;;;22.70;94.10;;;;;;5020728;28;20109;-89
2021/07/18 10:27:04;;;;;;;5.45;2.42;;;22.70;94.00;;;;;;5032598;28;20482;-89
2021/07/18 10:29:32;;;;;;;6.35;2.60;;;22.70;94.00;;;;;;5036485;28;20059;-89
2021/07/18 10:32:15;;;;;;;5.85;2.60;;;22.70;93.80;;;;;;5041539;28;20025;-88
2021/07/18 10:34:41;;;;;;;5.28;2.70;;;22.80;93.80;;;;;;5043066;28;20029;-90
2021/07/18 10:37:20;;;;;;;6.32;3.00;;;22.80;93.90;;;;;;5036838;28;20038;-88
2021/07/18 10:39:45;;;;;;;5.68;2.90;;;22.90;94.10;;;;;;5043175;28;20029;-87
2021/07/18 10:42:17;;;;;;;6.75;3.13;;;22.90;94.20;;;;;;5040811;28;20059;-87
2021/07/18 10:44:48;;;;;;;9.02;3.05;;;22.90;93.90;;;;;;5035410;28;20044;-87
2021/07/18 10:47:20;;;;;;;6.53;3.20;;;23.00;94.30;;;;;;5031849;28;20037;-87
2021/07/18 10:53:44;;;;;;;5.45;2.40;;;23.00;93.70;;;;;;4955027;29;20158;-89
2021/07/18 10:56:54;;;;;;;;;;;23.10;93.90;;;;;;5032885;28;20048;-88
2021/07/18 10:59:37;;;;;;;6.47;2.60;;;23.00;94.40;;;;;;5008904;28;20033;-89
2021/07/18 11:05:36;;;;;;;;;;;23.00;94.10;;;;;;5038971;28;20043;-87
2021/07/18 11:08:12;;;;;;;;;;;23.00;94.00;;;;;;5050038;28;20358;-87
2021/07/18 11:10:55;;;;;;;;;;;23.00;94.20;;;;;;5050949;28;19952;-91
2021/07/18 11:17:41;;;;;;;5.65;2.70;;;23.10;93.90;;;;;;4989707;28;20114;-89
2021/07/18 11:20:40;;;;;;;8.05;2.80;;;23.10;94.90;;;;;;4931294;29;20079;-90
2021/07/18 11:23:08;;;;;;;6.45;3.00;;;23.10;95.20;;;;;;4970134;28;20065;-89
2021/07/18 11:25:53;;;;;;;9.70;3.78;;;23.00;95.10;;;;;;5038843;28;20074;-86
2021/07/18 11:28:30;;;;;;;6.97;3.55;;;23.00;94.90;;;;;;5050038;28;20102;-85
2021/07/18 11:31:11;;;;;;;9.45;3.88;;;23.10;94.50;;;;;;5050263;28;20397;-85
2021/07/18 11:33:45;;;;;;;6.78;3.58;;;23.20;94.60;;;;;;5050766;28;20018;-86
2021/07/18 11:36:17;;;;;;;4.80;3.10;;;23.20;94.60;;;;;;5049824;28;20029;-85
2021/07/18 11:38:43;;;;;;;7.20;3.40;;;23.20;94.30;;;;;;5049706;28;20112;-86
2021/07/18 11:41:27;;;;;;;;;;;23.20;94.10;;;;;;5049696;28;20349;-85
2021/07/18 11:43:54;;;;;;;;;;;23.20;94.50;;;;;;5050182;28;19939;-85
2021/07/18 11:46:21;;;;;;;;;;;23.30;94.30;;;;;;5050369;28;20004;-85
2021/07/18 11:48:48;;;;;;;;;;;23.30;94.20;;;;;;5048845;28;20000;-86
2021/07/18 11:51:15;;;;;;;4.93;3.17;;;23.30;93.80;;;;;;5049674;28;20261;-85
2021/07/18 11:53:55;;;;;;;7.75;3.47;;;23.40;93.60;;;;;;5051092;28;20052;-84
2021/07/18 11:56:28;;;;;;;5.90;3.40;;;23.40;93.50;;;;;;5054454;28;20103;-84
2021/07/18 11:59:12;;;;;;;5.75;3.17;;;23.40;93.80;;;;;;5050849;28;20074;-91
2021/07/18 12:01:40;;;;;;;4.95;2.95;;;23.40;93.70;;;;;;5053611;28;20104;-85
2021/07/18 12:04:11;;;;;;;5.95;2.92;;;23.50;93.80;;;;;;5050198;28;20014;-86
2021/07/18 12:06:38;;;;;;;5.63;2.88;;;23.50;93.60;;;;;;5034993;28;20033;-87
2021/07/18 12:09:14;;;;;;;4.53;2.80;;;23.60;93.40;;;;;;5032971;28;20026;-85
2021/07/18 12:11:40;;;;;;;6.65;3.30;;;23.60;93.40;;;;;;5033684;28;20044;-90
2021/07/18 12:14:11;;;;;;;4.93;3.10;;;23.60;93.30;;;;;;5033617;28;20135;-92
2021/07/18 12:16:38;;;;;;;5.72;3.47;;;23.70;93.40;;;;;;5039583;28;20490;-92
2021/07/18 12:19:06;;;;;;;5.70;3.38;;;23.70;92.90;;;;;;5032402;28;20049;-87
2021/07/18 12:21:37;;;;;;;6.13;3.75;;;23.70;93.40;;;;;;5034487;28;20032;-87
2021/07/18 12:24:33;;;;;;;4.25;2.80;;;23.70;93.60;;;;;;5032645;28;20159;-87
2021/07/18 12:27:03;;;;;;;6.00;3.33;;;23.90;93.10;;;;;;5032258;28;20524;-86
2021/07/18 12:29:32;;;;;;;6.65;4.13;;;23.90;93.10;;;;;;5031881;28;20040;-86
2021/07/18 12:31:58;;;;;;;6.75;3.70;;;24.10;92.70;;;;;;5032820;28;20114;-87
2021/07/18 12:34:36;;;;;;;5.28;3.20;;;24.10;93.00;;;;;;5033088;28;20033;-86
2021/07/18 12:37:03;;;;;;;5.38;3.28;;;24.10;92.90;;;;;;5033626;28;20036;-86
2021/07/18 12:39:31;;;;;;;6.70;3.40;;;24.20;92.90;;;;;;5032296;28;20041;-86
2021/07/18 12:41:58;;;;;;;6.55;3.58;;;24.30;93.00;;;;;;5033659;28;20039;-88
2021/07/18 12:44:26;;;;;;;6.07;3.20;;;24.40;92.60;;;;;;5032155;28;20035;-87
2021/07/18 12:47:29;;;;;;;7.85;3.28;;;24.50;92.80;;;;;;5033312;28;20079;-86
2021/07/18 12:50:29;;;;;;;;;;;;;;;;;;;;;
2021/07/18 12:53:16;;;;;;;7.32;3.33;;;24.70;92.20;;;;;;5052885;28;20033;-86
2021/07/18 12:55:48;;;;;;;4.70;3.30;;;24.70;92.20;;;;;;5053459;28;20099;-86
2021/07/18 12:58:29;;;;;;;7.18;3.70;;;24.70;92.50;;;;;;5051909;28;20029;-86
2021/07/18 13:01:12;;;;;;;5.13;3.42;;;24.80;92.60;;;;;;5052174;28;20381;-88
2021/07/18 13:04:36;;;;;;;;;;;;;;;;;;;;;
2021/07/18 13:06:47;;;;;;;4.43;3.28;;;24.80;92.10;;;;;;5046131;28;20037;-90
2021/07/18 13:09:30;;;;;;;5.68;3.20;;;24.80;92.30;;;;;;5045701;28;20021;-91
2021/07/18 13:11:56;;;;;;;4.75;3.65;;;24.70;92.80;;;;;;5035164;28;20029;-91
2021/07/18 13:14:37;;;;;;;4.88;3.47;;;24.60;93.10;;;;;;5051964;28;20029;-90
2021/07/18 13:17:20;;;;;;;5.38;3.60;;;24.50;93.70;;;;;;5044048;28;20129;-91
2021/07/18 13:20:00;;;;;;;7.75;3.63;;;24.60;92.80;;;;;;5032681;28;20446;-91
2021/07/18 13:22:27;;;;;;;8.15;3.85;;;24.70;92.90;;;;;;5031596;28;20101;-90
2021/07/18 13:24:54;;;;;;;5.05;3.70;;;24.70;92.90;;;;;;5050598;28;20021;-91
2021/07/18 13:27:22;;;;;;;8.10;4.00;;;24.80;92.70;;;;;;5051339;28;20166;-89
2021/07/18 13:30:15;;;;;;;7.50;3.58;;;24.80;92.70;;;;;;5037443;28;20435;-90
2021/07/18 13:33:05;;;;;;;6.03;4.20;;;24.90;92.30;;;;;;5032578;28;20094;-91
2021/07/18 13:35:43;;;;;;;6.75;3.97;;;24.90;92.50;;;;;;5032500;28;20033;-90
2021/07/18 13:38:20;;;;;;;7.60;3.58;;;24.90;92.40;;;;;;5030974;28;20120;-91
2021/07/18 13:40:46;;;;;;;4.97;3.50;;;24.90;92.30;;;;;;5031480;28;20026;-90
2021/07/18 13:43:15;;;;;;;6.38;3.45;;;24.90;92.70;;;;;;5031098;28;20100;-91
2021/07/18 13:45:45;;;;;;;6.95;3.40;;;24.90;92.00;;;;;;5031026;28;20022;-91
2021/07/18 13:48:20;;;;;;;4.88;3.40;;;25.00;92.40;;;;;;5030965;28;20022;-90
2021/07/18 13:50:46;;;;;;;5.22;3.40;;;25.00;92.80;;;;;;5047995;28;20059;-89
2021/07/18 13:53:12;;;;;;;5.90;3.65;;;25.00;92.30;;;;;;5051378;28;20572;-89
2021/07/18 13:55:39;;;;;;;5.45;3.90;;;25.00;92.20;;;;;;5051255;28;20515;-90
2021/07/18 13:58:06;;;;;;;6.38;3.47;;;25.00;92.30;;;;;;5049767;28;20045;-89
2021/07/18 14:00:32;;;;;;;7.38;3.47;;;25.00;92.40;;;;;;5036306;28;20026;-89
2021/07/18 14:02:58;;;;;;;5.57;3.60;;;25.10;92.60;;;;;;5029252;28;20029;-89